Terminal Aerodrome Forecast
Issued by NWS

Home | Current Version | Previous Version | Text Only | Print | Product List | Glossary On
Versions: 1 2 3 4 5 6 7 8 9 10 11 12 13 14 15 16 17 18 19 20 21 22 23 24 25 26
000
FTUS46 KLOX 190935 AAC
TAFLAX
TAF AMD
KLAX 190935Z 1910/2012 VRB03KT P6SM SKC
     FM191030 VRB03KT 4SM BR OVC007
     FM191200 VRB03KT 1 1/2SM BR OVC003
     FM191500 11003KT 6SM BR BKN007
     FM191800 24006KT 6SM HZ BKN010
     FM192000 26015KT P6SM SCT015 BKN250
     FM200300 25011KT P6SM BKN010
     FM200600 25005KT 6SM BR BKN007 OVC015=

USA.gov is the U.S. government's official web portal to all federal, state and local government web resources and services.